createdAt,value
2019-05-05T00:01:18.218Z,3.99
2019-05-05T00:06:25.000Z,4.11
2019-05-05T00:11:35.145Z,4.20
2019-05-05T00:16:45.469Z,4.23
2019-05-05T00:21:51.534Z,4.15
2019-05-05T00:26:57.114Z,4.26
2019-05-05T00:32:04.803Z,4.25
2019-05-05T00:37:10.271Z,4.26
2019-05-05T00:42:16.065Z,4.24
2019-05-05T00:47:25.103Z,4.25
2019-05-05T00:52:30.811Z,4.48
2019-05-05T00:57:37.040Z,4.56
2019-05-05T01:02:44.905Z,4.41
2019-05-05T01:07:50.840Z,4.28
2019-05-05T01:12:56.613Z,4.19
2019-05-05T01:18:02.916Z,4.14
2019-05-05T01:23:09.629Z,4.19
2019-05-05T01:28:15.731Z,4.12
2019-05-05T01:33:27.705Z,4.02
2019-05-05T01:38:44.698Z,4.09
2019-05-05T01:43:50.474Z,3.97
2019-05-05T01:48:56.195Z,4.03
2019-05-05T01:54:02.043Z,4.03
2019-05-05T01:59:07.706Z,4.07
2019-05-05T02:04:14.470Z,4.14
2019-05-05T02:09:21.376Z,4.04
2019-05-05T02:14:27.344Z,4.02
2019-05-05T02:19:35.058Z,4.05
2019-05-05T02:24:40.623Z,4.00
2019-05-05T02:29:51.039Z,3.87
2019-05-05T02:34:58.445Z,3.97
2019-05-05T02:40:07.682Z,3.95
2019-05-05T02:45:16.188Z,3.97
2019-05-05T02:50:25.109Z,3.88
2019-05-05T02:55:32.769Z,3.86
2019-05-05T03:00:56.837Z,3.74
2019-05-05T03:06:04.463Z,3.84
2019-05-05T03:11:14.552Z,3.65
2019-05-05T03:16:23.807Z,3.67
2019-05-05T03:21:29.676Z,3.64
2019-05-05T03:26:35.733Z,3.63
2019-05-05T03:31:41.430Z,3.55
2019-05-05T03:36:47.377Z,3.36
2019-05-05T03:41:54.798Z,3.53
2019-05-05T03:47:00.807Z,3.51
2019-05-05T03:52:06.580Z,3.57
2019-05-05T03:57:14.122Z,3.62
2019-05-05T04:02:24.131Z,3.64
2019-05-05T04:07:30.267Z,3.63
2019-05-05T04:12:36.555Z,3.74
2019-05-05T04:17:44.407Z,3.80
2019-05-05T04:22:51.262Z,3.65
2019-05-05T04:27:57.010Z,3.83
2019-05-05T04:33:03.766Z,4.25
2019-05-05T04:38:09.639Z,4.36
2019-05-05T04:43:15.465Z,4.56
2019-05-05T04:48:24.184Z,4.48
2019-05-05T04:53:49.227Z,4.46
2019-05-05T04:58:55.300Z,4.82
2019-05-05T05:04:03.698Z,4.94
2019-05-05T05:09:09.496Z,5.03
2019-05-05T05:14:15.273Z,5.19
2019-05-05T05:19:21.143Z,5.26
2019-05-05T05:24:27.009Z,5.74
2019-05-05T05:29:34.529Z,6.11
2019-05-05T05:34:40.080Z,5.88
2019-05-05T05:39:47.589Z,6.60
2019-05-05T05:44:54.880Z,6.33
2019-05-05T05:50:05.077Z,6.29
2019-05-05T05:55:10.837Z,6.49
2019-05-05T06:00:16.969Z,6.50
2019-05-05T06:05:23.845Z,6.63
2019-05-05T06:10:29.806Z,6.74
2019-05-05T06:15:36.155Z,6.96
2019-05-05T06:20:41.935Z,7.28
2019-05-05T06:25:47.706Z,7.09
2019-05-05T06:30:54.639Z,7.12
2019-05-05T06:36:00.581Z,7.48
2019-05-05T06:41:10.621Z,7.47
2019-05-05T06:46:30.028Z,7.69
2019-05-05T06:51:35.836Z,7.63
2019-05-05T06:56:41.820Z,7.67
2019-05-05T07:01:47.877Z,7.98
2019-05-05T07:06:56.901Z,8.10
2019-05-05T07:12:01.255Z,8.26
2019-05-05T07:17:08.063Z,8.30
2019-05-05T07:22:17.296Z,8.51
2019-05-05T07:27:21.527Z,8.42
2019-05-05T07:32:27.384Z,8.46
2019-05-05T07:37:34.406Z,8.58
2019-05-05T07:42:40.356Z,8.75
2019-05-05T07:47:47.456Z,8.75
2019-05-05T07:52:54.660Z,9.08
2019-05-05T07:58:00.739Z,8.91
2019-05-05T08:03:06.564Z,9.05
2019-05-05T08:08:14.030Z,9.33
2019-05-05T08:13:19.766Z,9.63
2019-05-05T08:18:30.114Z,9.95
2019-05-05T08:23:37.769Z,10.02
2019-05-05T08:28:45.071Z,9.46
2019-05-05T08:33:50.828Z,9.39
2019-05-05T08:38:56.647Z,9.76
2019-05-05T08:44:04.286Z,9.65
2019-05-05T08:49:10.026Z,10.17
2019-05-05T08:54:15.959Z,10.83
2019-05-05T08:59:21.735Z,10.43
2019-05-05T09:04:27.599Z,10.19
2019-05-05T09:09:33.626Z,10.77
2019-05-05T09:14:39.442Z,10.77
2019-05-05T09:19:45.227Z,10.55
2019-05-05T09:24:58.767Z,10.12
2019-05-05T09:30:05.939Z,9.83
2019-05-05T09:35:13.883Z,9.85
2019-05-05T09:40:24.159Z,9.83
2019-05-05T09:45:30.032Z,10.04
2019-05-05T09:50:36.423Z,9.89
2019-05-05T09:55:44.322Z,10.99
2019-05-05T10:00:49.794Z,11.95
2019-05-05T10:05:55.699Z,12.77
2019-05-05T10:11:03.939Z,11.99
2019-05-05T10:16:09.157Z,10.94
2019-05-05T10:21:17.718Z,10.96
2019-05-05T10:26:23.857Z,11.07
2019-05-05T10:31:29.877Z,11.08
2019-05-05T10:36:35.702Z,10.34
2019-05-05T10:41:41.525Z,10.59
2019-05-05T10:46:47.466Z,10.73
2019-05-05T10:51:54.326Z,10.46
2019-05-05T10:57:00.247Z,10.68
2019-05-05T11:02:06.027Z,10.92
2019-05-05T11:07:11.862Z,11.00
2019-05-05T11:12:17.506Z,10.55
2019-05-05T11:17:24.816Z,11.37
2019-05-05T11:22:30.799Z,11.94
2019-05-05T11:27:36.684Z,11.40
2019-05-05T11:33:04.031Z,11.45
2019-05-05T11:38:10.033Z,11.98
2019-05-05T11:43:15.893Z,12.80
2019-05-05T11:48:23.863Z,12.98
2019-05-05T11:53:29.072Z,12.79
2019-05-05T11:58:34.710Z,13.13
2019-05-05T12:03:40.506Z,12.27
2019-05-05T12:08:46.375Z,11.62
2019-05-05T12:13:54.439Z,12.35
2019-05-05T12:19:01.082Z,13.07
2019-05-05T12:24:08.532Z,12.92
2019-05-05T12:29:14.491Z,14.48
2019-05-05T12:34:20.332Z,12.44
2019-05-05T12:39:26.209Z,12.40
2019-05-05T12:44:34.157Z,13.14
2019-05-05T12:49:41.067Z,13.95
2019-05-05T12:54:47.307Z,12.65
2019-05-05T12:59:53.699Z,11.91
2019-05-05T13:04:59.762Z,12.40
2019-05-05T13:10:07.585Z,11.87
2019-05-05T13:15:14.351Z,12.67
2019-05-05T13:20:38.677Z,13.35
2019-05-05T13:25:56.055Z,13.75
2019-05-05T13:30:56.308Z,12.92
2019-05-05T13:36:04.193Z,13.04
2019-05-05T13:41:09.739Z,12.74
2019-05-05T13:46:17.147Z,12.38
2019-05-05T13:51:24.007Z,12.28
2019-05-05T13:56:29.949Z,12.51
2019-05-05T14:01:35.941Z,12.04
2019-05-05T14:06:43.988Z,13.21
2019-05-05T14:11:49.241Z,12.55
2019-05-05T14:16:56.010Z,12.58
2019-05-05T14:22:01.693Z,12.35
2019-05-05T14:27:07.445Z,13.30
2019-05-05T14:32:14.885Z,13.65
2019-05-05T14:37:34.499Z,12.66
2019-05-05T14:42:40.321Z,12.93
2019-05-05T14:47:46.155Z,12.84
2019-05-05T14:52:53.511Z,13.05
2019-05-05T14:57:59.419Z,12.72
2019-05-05T15:03:05.616Z,12.59
2019-05-05T15:08:18.955Z,12.65
2019-05-05T15:13:25.226Z,12.38
2019-05-05T15:18:31.000Z,13.01
2019-05-05T15:23:37.274Z,13.07
2019-05-05T15:28:45.228Z,13.44
2019-05-05T15:33:53.441Z,14.23
2019-05-05T15:38:59.389Z,13.95
2019-05-05T15:44:06.879Z,12.71
2019-05-05T15:49:13.363Z,12.94
2019-05-05T15:54:20.184Z,12.78
2019-05-05T15:59:26.156Z,12.73
2019-05-05T16:04:34.048Z,12.53
2019-05-05T16:09:39.640Z,12.40
2019-05-05T16:14:47.145Z,12.29
2019-05-05T16:19:57.360Z,12.31
2019-05-05T16:25:17.013Z,12.90
2019-05-05T16:30:25.483Z,12.52
2019-05-05T16:35:31.355Z,12.45
2019-05-05T16:40:37.137Z,12.79
2019-05-05T16:45:44.471Z,13.50
2019-05-05T16:50:50.359Z,12.70
2019-05-05T16:55:57.490Z,12.73
2019-05-05T17:01:03.898Z,12.43
2019-05-05T17:06:09.744Z,12.33
2019-05-05T17:11:15.597Z,12.35
2019-05-05T17:16:25.871Z,12.17
2019-05-05T17:21:36.341Z,12.55
2019-05-05T17:26:43.876Z,12.84
2019-05-05T17:31:49.730Z,12.76
2019-05-05T17:36:55.886Z,12.61
2019-05-05T17:42:19.684Z,12.56
2019-05-05T17:47:36.940Z,12.56
2019-05-05T17:52:50.388Z,11.95
2019-05-05T17:58:01.509Z,12.34
2019-05-05T18:03:05.097Z,11.40
2019-05-05T18:08:13.844Z,11.63
2019-05-05T18:13:22.240Z,11.28
2019-05-05T18:18:28.029Z,10.98
2019-05-05T18:23:34.282Z,10.82
2019-05-05T18:28:40.121Z,10.51
2019-05-05T18:33:45.968Z,10.32
2019-05-05T18:38:53.676Z,10.21
2019-05-05T18:44:09.610Z,10.03
2019-05-05T18:49:15.543Z,9.83
2019-05-05T18:54:21.418Z,8.93
2019-05-05T18:59:27.385Z,9.04
2019-05-05T19:04:34.818Z,8.74
2019-05-05T19:09:51.078Z,8.43
2019-05-05T19:14:47.941Z,8.25
2019-05-05T19:19:55.315Z,8.00
2019-05-05T19:25:04.273Z,8.26
2019-05-05T19:30:10.345Z,8.10
2019-05-05T19:35:16.285Z,7.83
2019-05-05T19:40:24.224Z,7.55
2019-05-05T19:45:29.753Z,7.15
2019-05-05T19:50:40.013Z,7.15
2019-05-05T19:55:45.716Z,6.95
2019-05-05T20:00:51.879Z,6.84
2019-05-05T20:05:57.797Z,6.67
2019-05-05T20:11:08.244Z,6.56
2019-05-05T20:16:15.690Z,6.52
2019-05-05T20:21:23.571Z,6.53
2019-05-05T20:26:29.148Z,6.28
2019-05-05T20:31:35.020Z,6.38
2019-05-05T20:36:42.604Z,6.26
2019-05-05T20:41:54.364Z,6.25
2019-05-05T20:47:04.480Z,6.28
2019-05-05T20:52:10.041Z,6.14
2019-05-05T20:57:15.811Z,6.09
2019-05-05T21:02:21.784Z,6.09
2019-05-05T21:07:27.652Z,6.18
2019-05-05T21:12:42.339Z,6.30
2019-05-05T21:17:40.920Z,6.24
2019-05-05T21:22:48.443Z,6.34
2019-05-05T21:27:54.212Z,6.48
2019-05-05T21:32:59.989Z,6.52
2019-05-05T21:38:05.750Z,6.38
2019-05-05T21:43:11.521Z,6.69
2019-05-05T21:48:17.205Z,6.94
2019-05-05T21:53:24.746Z,7.11
2019-05-05T21:58:44.235Z,7.29
2019-05-05T22:03:49.972Z,7.30
2019-05-05T22:08:55.886Z,7.28
2019-05-05T22:14:04.373Z,7.11
2019-05-05T22:19:10.333Z,7.04
2019-05-05T22:24:17.427Z,6.94
2019-05-05T22:29:24.946Z,6.90
2019-05-05T22:34:31.020Z,6.91
2019-05-05T22:39:37.875Z,6.87
2019-05-05T22:44:43.583Z,6.86
2019-05-05T22:49:49.348Z,6.80
2019-05-05T22:54:55.148Z,6.76
2019-05-05T23:00:00.994Z,6.87
2019-05-05T23:05:24.025Z,7.01
2019-05-05T23:10:29.825Z,6.92
2019-05-05T23:15:37.337Z,6.90
2019-05-05T23:20:50.372Z,6.88
2019-05-05T23:25:57.891Z,6.77
2019-05-05T23:31:03.755Z,6.74
2019-05-05T23:36:09.461Z,6.68
2019-05-05T23:41:16.219Z,6.58
2019-05-05T23:46:23.986Z,6.45
2019-05-05T23:51:29.261Z,6.39
2019-05-05T23:56:35.164Z,6.47
